sensor_id;sensor_type;location;lat;lon;timestamp;pressure;altitude;pressure_sealevel;temperature;humidity
23643;BME280;11998;55.788;37.572;2023-02-23T00:00:00;98963.69;;;-12.10;100.00
23643;BME280;11998;55.788;37.572;2023-02-23T00:01:24;98964.72;;;-12.22;100.00
23643;BME280;11998;55.788;37.572;2023-02-23T00:02:25;98961.56;;;-12.18;100.00
23643;BME280;11998;55.788;37.572;2023-02-23T00:03:26;98964.72;;;-12.22;100.00
23643;BME280;11998;55.788;37.572;2023-02-23T00:04:26;98972.31;;;-12.23;100.00
23643;BME280;11998;55.788;37.572;2023-02-23T00:05:30;98964.47;;;-12.11;100.00
23643;BME280;11998;55.788;37.572;2023-02-23T00:06:32;98975.47;;;-12.12;100.00
23643;BME280;11998;55.788;37.572;2023-02-23T00:07:33;98971.97;;;-12.14;100.00
23643;BME280;11998;55.788;37.572;2023-02-23T00:08:36;98978.44;;;-12.20;100.00
23643;BME280;11998;55.788;37.572;2023-02-23T00:09:37;98974.41;;;-12.16;100.00
23643;BME280;11998;55.788;37.572;2023-02-23T00:10:38;98970.00;;;-12.19;100.00
23643;BME280;11998;55.788;37.572;2023-02-23T00:11:38;98968.25;;;-12.20;100.00
23643;BME280;11998;55.788;37.572;2023-02-23T00:12:42;98978.28;;;-12.23;100.00
23643;BME280;11998;55.788;37.572;2023-02-23T00:13:45;98980.13;;;-12.20;100.00
23643;BME280;11998;55.788;37.572;2023-02-23T00:14:49;98980.22;;;-12.19;100.00
23643;BME280;11998;55.788;37.572;2023-02-23T00:15:49;98985.69;;;-12.27;100.00
23643;BME280;11998;55.788;37.572;2023-02-23T00:16:50;98984.75;;;-12.28;100.00
23643;BME280;11998;55.788;37.572;2023-02-23T00:17:55;98986.00;;;-12.36;100.00
23643;BME280;11998;55.788;37.572;2023-02-23T00:18:57;98991.34;;;-12.46;100.00
23643;BME280;11998;55.788;37.572;2023-02-23T00:19:59;98988.78;;;-12.46;100.00
23643;BME280;11998;55.788;37.572;2023-02-23T00:21:01;98986.47;;;-12.56;100.00
23643;BME280;11998;55.788;37.572;2023-02-23T00:22:01;98994.50;;;-12.50;100.00
23643;BME280;11998;55.788;37.572;2023-02-23T00:23:02;98994.13;;;-12.56;100.00
23643;BME280;11998;55.788;37.572;2023-02-23T00:24:06;98989.97;;;-12.54;100.00
23643;BME280;11998;55.788;37.572;2023-02-23T00:25:09;98985.78;;;-12.54;100.00
23643;BME280;11998;55.788;37.572;2023-02-23T00:26:10;98991.97;;;-12.50;100.00
23643;BME280;11998;55.788;37.572;2023-02-23T00:27:12;98998.06;;;-12.61;100.00
23643;BME280;11998;55.788;37.572;2023-02-23T00:28:17;98999.28;;;-12.69;100.00
23643;BME280;11998;55.788;37.572;2023-02-23T00:29:21;99007.88;;;-12.67;100.00
23643;BME280;11998;55.788;37.572;2023-02-23T00:30:22;98999.28;;;-12.69;100.00
23643;BME280;11998;55.788;37.572;2023-02-23T00:31:24;98996.97;;;-12.65;100.00
23643;BME280;11998;55.788;37.572;2023-02-23T00:32:26;98992.59;;;-12.67;100.00
23643;BME280;11998;55.788;37.572;2023-02-23T00:33:26;98996.63;;;-12.71;100.00
23643;BME280;11998;55.788;37.572;2023-02-23T00:34:29;98997.16;;;-12.77;100.00
23643;BME280;11998;55.788;37.572;2023-02-23T00:35:32;99001.47;;;-12.76;100.00
23643;BME280;11998;55.788;37.572;2023-02-23T00:36:33;99004.38;;;-12.69;100.00
23643;BME280;11998;55.788;37.572;2023-02-23T00:37:34;99000.47;;;-12.78;100.00
23643;BME280;11998;55.788;37.572;2023-02-23T00:38:38;98999.09;;;-12.72;100.00
23643;BME280;11998;55.788;37.572;2023-02-23T00:39:39;99000.28;;;-12.81;100.00
23643;BME280;11998;55.788;37.572;2023-02-23T00:40:40;98999.56;;;-12.78;100.00
23643;BME280;11998;55.788;37.572;2023-02-23T00:41:40;99001.69;;;-12.86;100.00
23643;BME280;11998;55.788;37.572;2023-02-23T00:42:46;98998.69;;;-12.79;100.00
23643;BME280;11998;55.788;37.572;2023-02-23T00:43:47;98995.34;;;-12.78;100.00
23643;BME280;11998;55.788;37.572;2023-02-23T00:44:48;99009.09;;;-12.76;100.00
23643;BME280;11998;55.788;37.572;2023-02-23T00:45:49;98998.53;;;-12.82;100.00
23643;BME280;11998;55.788;37.572;2023-02-23T00:46:50;99008.53;;;-12.85;100.00
23643;BME280;11998;55.788;37.572;2023-02-23T00:47:50;99009.41;;;-12.84;100.00
23643;BME280;11998;55.788;37.572;2023-02-23T00:48:52;99005.19;;;-12.84;100.00
23643;BME280;11998;55.788;37.572;2023-02-23T00:49:54;99000.72;;;-12.88;100.00
23643;BME280;11998;55.788;37.572;2023-02-23T00:51:03;99008.53;;;-12.85;100.00
23643;BME280;11998;55.788;37.572;2023-02-23T00:52:04;99008.34;;;-12.88;100.00
23643;BME280;11998;55.788;37.572;2023-02-23T00:53:05;99014.81;;;-12.93;100.00
23643;BME280;11998;55.788;37.572;2023-02-23T00:54:06;99005.59;;;-12.91;100.00
23643;BME280;11998;55.788;37.572;2023-02-23T00:55:08;99015.91;;;-12.89;100.00
23643;BME280;11998;55.788;37.572;2023-02-23T00:56:11;99013.94;;;-12.93;100.00
23643;BME280;11998;55.788;37.572;2023-02-23T00:57:12;99013.34;;;-12.89;100.00
23643;BME280;11998;55.788;37.572;2023-02-23T00:58:13;99016.56;;;-12.92;100.00
23643;BME280;11998;55.788;37.572;2023-02-23T00:59:14;99015.03;;;-13.03;100.00
23643;BME280;11998;55.788;37.572;2023-02-23T01:00:15;99018.75;;;-12.98;100.00
23643;BME280;11998;55.788;37.572;2023-02-23T01:01:18;99014.28;;;-13.02;100.00
23643;BME280;11998;55.788;37.572;2023-02-23T01:02:18;99021.13;;;-13.01;100.00
23643;BME280;11998;55.788;37.572;2023-02-23T01:03:19;99021.78;;;-13.04;100.00
23643;BME280;11998;55.788;37.572;2023-02-23T01:04:21;99020.72;;;-13.07;100.00
23643;BME280;11998;55.788;37.572;2023-02-23T01:05:24;99021.31;;;-13.11;100.00
23643;BME280;11998;55.788;37.572;2023-02-23T01:06:25;99023.28;;;-13.07;100.00
23643;BME280;11998;55.788;37.572;2023-02-23T01:07:26;99015.63;;;-13.07;100.00
23643;BME280;11998;55.788;37.572;2023-02-23T01:08:28;99023.38;;;-13.06;100.00
23643;BME280;11998;55.788;37.572;2023-02-23T01:09:29;99023.28;;;-13.07;100.00
23643;BME280;11998;55.788;37.572;2023-02-23T01:10:29;99022.31;;;-13.09;100.00
23643;BME280;11998;55.788;37.572;2023-02-23T01:11:30;99021.31;;;-13.11;100.00
23643;BME280;11998;55.788;37.572;2023-02-23T01:12:31;99015.03;;;-13.16;100.00
23643;BME280;11998;55.788;37.572;2023-02-23T01:13:31;99016.28;;;-13.24;100.00
23643;BME280;11998;55.788;37.572;2023-02-23T01:14:36;99015.59;;;-13.22;100.00
23643;BME280;11998;55.788;37.572;2023-02-23T01:15:41;99022.53;;;-13.19;100.00
23643;BME280;11998;55.788;37.572;2023-02-23T01:16:42;99023.13;;;-13.23;100.00
23643;BME280;11998;55.788;37.572;2023-02-23T01:17:43;99016.94;;;-13.27;100.00
23643;BME280;11998;55.788;37.572;2023-02-23T01:18:44;99024.59;;;-13.27;100.00
23643;BME280;11998;55.788;37.572;2023-02-23T01:19:45;99021.84;;;-13.30;100.00
23643;BME280;11998;55.788;37.572;2023-02-23T01:20:46;99036.44;;;-13.27;100.00
23643;BME280;11998;55.788;37.572;2023-02-23T01:21:46;99035.28;;;-13.32;100.00
23643;BME280;11998;55.788;37.572;2023-02-23T01:22:49;99027.34;;;-13.24;100.00
23643;BME280;11998;55.788;37.572;2023-02-23T01:23:54;99026.66;;;-13.21;100.00
23643;BME280;11998;55.788;37.572;2023-02-23T01:24:55;99028.41;;;-13.20;100.00
23643;BME280;11998;55.788;37.572;2023-02-23T01:25:56;99025.09;;;-13.19;100.00
23643;BME280;11998;55.788;37.572;2023-02-23T01:26:56;99027.81;;;-13.29;100.00
23643;BME280;11998;55.788;37.572;2023-02-23T01:27:57;99029.59;;;-13.28;100.00
23643;BME280;11998;55.788;37.572;2023-02-23T01:29:04;99030.59;;;-13.26;100.00
23643;BME280;11998;55.788;37.572;2023-02-23T01:30:09;99023.94;;;-13.24;100.00
23643;BME280;11998;55.788;37.572;2023-02-23T01:31:10;99027.81;;;-13.29;100.00
23643;BME280;11998;55.788;37.572;2023-02-23T01:32:12;99021.94;;;-13.28;100.00
23643;BME280;11998;55.788;37.572;2023-02-23T01:33:13;99033.13;;;-13.26;100.00
23643;BME280;11998;55.788;37.572;2023-02-23T01:34:14;99025.09;;;-13.32;100.00
23643;BME280;11998;55.788;37.572;2023-02-23T01:35:14;99026.06;;;-13.30;100.00
23643;BME280;11998;55.788;37.572;2023-02-23T01:36:15;99024.31;;;-13.31;100.00
23643;BME280;11998;55.788;37.572;2023-02-23T01:37:17;99022.53;;;-13.32;100.00
23643;BME280;11998;55.788;37.572;2023-02-23T01:38:17;99020.19;;;-13.43;100.00
23643;BME280;11998;55.788;37.572;2023-02-23T01:39:19;99021.28;;;-13.39;100.00
23643;BME280;11998;55.788;37.572;2023-02-23T01:40:23;99028.81;;;-13.41;100.00
23643;BME280;11998;55.788;37.572;2023-02-23T01:41:30;99022.19;;;-13.39;100.00
23643;BME280;11998;55.788;37.572;2023-02-23T01:42:36;99030.56;;;-13.40;100.00
23643;BME280;11998;55.788;37.572;2023-02-23T01:45:28;99019.31;;;-13.43;100.00
23643;BME280;11998;55.788;37.572;2023-02-23T01:46:37;99036.25;;;-13.44;100.00
23643;BME280;11998;55.788;37.572;2023-02-23T01:47:38;99031.75;;;-13.48;100.00
23643;BME280;11998;55.788;37.572;2023-02-23T01:48:39;99025.69;;;-13.50;100.00
23643;BME280;11998;55.788;37.572;2023-02-23T01:49:41;99026.47;;;-13.51;100.00
23643;BME280;11998;55.788;37.572;2023-02-23T01:50:50;99033.34;;;-13.50;100.00
23643;BME280;11998;55.788;37.572;2023-02-23T01:52:04;99025.88;;;-13.47;100.00
23643;BME280;11998;55.788;37.572;2023-02-23T01:53:06;99040.38;;;-13.46;100.00
23643;BME280;11998;55.788;37.572;2023-02-23T01:54:11;99036.16;;;-13.45;100.00
23643;BME280;11998;55.788;37.572;2023-02-23T01:55:15;99032.34;;;-13.39;100.00
23643;BME280;11998;55.788;37.572;2023-02-23T01:56:28;99040.09;;;-13.37;100.00
23643;BME280;11998;55.788;37.572;2023-02-23T01:57:29;99038.81;;;-13.44;100.00
23643;BME280;11998;55.788;37.572;2023-02-23T01:58:32;99039.78;;;-13.42;100.00
23643;BME280;11998;55.788;37.572;2023-02-23T01:59:43;99037.91;;;-13.44;100.00
23643;BME280;11998;55.788;37.572;2023-02-23T02:01:05;99034.78;;;-13.40;100.00
23643;BME280;11998;55.788;37.572;2023-02-23T02:02:06;99029.91;;;-13.37;100.00
23643;BME280;11998;55.788;37.572;2023-02-23T02:03:11;99044.69;;;-13.31;100.00
23643;BME280;11998;55.788;37.572;2023-02-23T02:04:13;99045.84;;;-13.40;100.00
23643;BME280;11998;55.788;37.572;2023-02-23T02:05:15;99052.41;;;-13.30;100.00
23643;BME280;11998;55.788;37.572;2023-02-23T02:06:18;99048.00;;;-13.32;100.00
23643;BME280;11998;55.788;37.572;2023-02-23T02:07:22;99049.59;;;-13.35;100.00
23643;BME280;11998;55.788;37.572;2023-02-23T02:08:25;99052.13;;;-13.35;100.00
23643;BME280;11998;55.788;37.572;2023-02-23T02:09:26;99054.00;;;-13.32;100.00
23643;BME280;11998;55.788;37.572;2023-02-23T02:10:27;99049.00;;;-13.30;100.00
23643;BME280;11998;55.788;37.572;2023-02-23T02:11:45;99049.59;;;-13.35;100.00
23643;BME280;11998;55.788;37.572;2023-02-23T02:12:55;99051.06;;;-13.25;100.00
23643;BME280;11998;55.788;37.572;2023-02-23T02:14:00;99053.09;;;-13.32;100.00
23643;BME280;11998;55.788;37.572;2023-02-23T02:15:03;99050.06;;;-13.40;100.00
23643;BME280;11998;55.788;37.572;2023-02-23T02:16:06;99049.78;;;-13.31;100.00
23643;BME280;11998;55.788;37.572;2023-02-23T02:18:42;99052.91;;;-13.36;100.00
23643;BME280;11998;55.788;37.572;2023-02-23T02:35:36;99067.41;;;-13.61;100.00
23643;BME280;11998;55.788;37.572;2023-02-23T02:37:23;99077.34;;;-13.64;100.00
23643;BME280;11998;55.788;37.572;2023-02-23T02:43:05;99076.78;;;-13.73;100.00
23643;BME280;11998;55.788;37.572;2023-02-23T02:44:15;99078.34;;;-13.62;100.00
23643;BME280;11998;55.788;37.572;2023-02-23T02:45:21;99072.47;;;-13.61;100.00
23643;BME280;11998;55.788;37.572;2023-02-23T02:46:37;99076.78;;;-13.60;100.00
23643;BME280;11998;55.788;37.572;2023-02-23T02:47:48;99078.75;;;-13.56;100.00
23643;BME280;11998;55.788;37.572;2023-02-23T02:49:02;99087.25;;;-13.69;100.00
23643;BME280;11998;55.788;37.572;2023-02-23T02:51:57;99080.69;;;-13.65;100.00
23643;BME280;11998;55.788;37.572;2023-02-23T02:53:09;99087.94;;;-13.71;100.00
23643;BME280;11998;55.788;37.572;2023-02-23T02:54:30;99082.84;;;-13.71;100.00
23643;BME280;11998;55.788;37.572;2023-02-23T02:55:34;99087.72;;;-13.74;100.00
23643;BME280;11998;55.788;37.572;2023-02-23T02:56:39;99086.56;;;-13.66;100.00
23643;BME280;11998;55.788;37.572;2023-02-23T02:57:42;99085.47;;;-13.70;100.00
23643;BME280;11998;55.788;37.572;2023-02-23T02:58:46;99093.41;;;-13.65;100.00
23643;BME280;11998;55.788;37.572;2023-02-23T02:59:50;99081.47;;;-13.66;100.00
23643;BME280;11998;55.788;37.572;2023-02-23T03:01:12;99085.47;;;-13.70;100.00
23643;BME280;11998;55.788;37.572;2023-02-23T03:02:35;99087.16;;;-13.70;100.00
23643;BME280;11998;55.788;37.572;2023-02-23T03:03:55;99089.31;;;-13.76;100.00
23643;BME280;11998;55.788;37.572;2023-02-23T03:05:19;99087.31;;;-13.80;100.00
23643;BME280;11998;55.788;37.572;2023-02-23T03:06:46;99085.75;;;-13.78;100.00
23643;BME280;11998;55.788;37.572;2023-02-23T03:11:14;99084.22;;;-13.76;100.00
23643;BME280;11998;55.788;37.572;2023-02-23T03:14:08;99087.31;;;-13.80;100.00
23643;BME280;11998;55.788;37.572;2023-02-23T03:15:44;99091.63;;;-13.79;100.00
23643;BME280;11998;55.788;37.572;2023-02-23T03:17:20;99098.84;;;-13.85;100.00
23643;BME280;11998;55.788;37.572;2023-02-23T03:19:02;99092.88;;;-13.86;100.00
23643;BME280;11998;55.788;37.572;2023-02-23T03:21:58;99088.50;;;-13.88;100.00
23643;BME280;11998;55.788;37.572;2023-02-23T03:25:05;99100.19;;;-13.90;100.00
23643;BME280;11998;55.788;37.572;2023-02-23T03:26:40;99109.50;;;-13.91;100.00
23643;BME280;11998;55.788;37.572;2023-02-23T03:31:32;99104.88;;;-13.97;100.00
23643;BME280;11998;55.788;37.572;2023-02-23T03:33:00;99098.22;;;-13.95;100.00
23643;BME280;11998;55.788;37.572;2023-02-23T03:34:50;99101.75;;;-13.93;100.00
23643;BME280;11998;55.788;37.572;2023-02-23T03:36:16;99105.09;;;-13.94;100.00
23643;BME280;11998;55.788;37.572;2023-02-23T03:37:44;99105.66;;;-13.98;100.00
23643;BME280;11998;55.788;37.572;2023-02-23T03:39:12;99101.38;;;-13.99;100.00
23643;BME280;11998;55.788;37.572;2023-02-23T03:40:37;99105.88;;;-13.95;100.00
23643;BME280;11998;55.788;37.572;2023-02-23T03:41:57;99108.00;;;-14.01;100.00
23643;BME280;11998;55.788;37.572;2023-02-23T03:43:25;99099.91;;;-13.95;100.00
23643;BME280;11998;55.788;37.572;2023-02-23T03:44:47;99106.22;;;-14.02;100.00
23643;BME280;11998;55.788;37.572;2023-02-23T03:46:09;99108.00;;;-14.01;100.00
23643;BME280;11998;55.788;37.572;2023-02-23T03:47:34;99102.69;;;-14.04;100.00
23643;BME280;11998;55.788;37.572;2023-02-23T03:48:57;99113.09;;;-14.01;100.00
23643;BME280;11998;55.788;37.572;2023-02-23T03:50:23;99109.53;;;-14.03;100.00
23643;BME280;11998;55.788;37.572;2023-02-23T03:51:48;99111.09;;;-14.05;100.00
23643;BME280;11998;55.788;37.572;2023-02-23T03:53:13;99118.44;;;-14.09;100.00
23643;BME280;11998;55.788;37.572;2023-02-23T03:54:43;99118.63;;;-14.06;100.00
23643;BME280;11998;55.788;37.572;2023-02-23T03:56:05;99125.38;;;-14.07;100.00
23643;BME280;11998;55.788;37.572;2023-02-23T03:57:30;99111.09;;;-14.05;100.00
23643;BME280;11998;55.788;37.572;2023-02-23T03:58:56;99122.22;;;-14.16;100.00
23643;BME280;11998;55.788;37.572;2023-02-23T04:00:26;99119.13;;;-14.12;100.00
23643;BME280;11998;55.788;37.572;2023-02-23T04:01:50;99112.47;;;-14.10;100.00
23643;BME280;11998;55.788;37.572;2023-02-23T04:03:14;99119.13;;;-14.12;100.00
23643;BME280;11998;55.788;37.572;2023-02-23T04:04:34;99113.59;;;-14.18;100.00
23643;BME280;11998;55.788;37.572;2023-02-23T04:05:54;99118.00;;;-14.15;100.00
23643;BME280;11998;55.788;37.572;2023-02-23T04:07:17;99111.84;;;-14.19;100.00
23643;BME280;11998;55.788;37.572;2023-02-23T04:08:37;99120.03;;;-14.23;100.00
23643;BME280;11998;55.788;37.572;2023-02-23T04:09:57;99117.13;;;-14.16;100.00
23643;BME280;11998;55.788;37.572;2023-02-23T04:13:23;99118.44;;;-14.09;100.00
23643;BME280;11998;55.788;37.572;2023-02-23T04:14:43;99119.75;;;-14.14;100.00
23643;BME280;11998;55.788;37.572;2023-02-23T04:16:51;99122.00;;;-14.19;100.00
23643;BME280;11998;55.788;37.572;2023-02-23T04:17:52;99127.28;;;-14.16;100.00
23643;BME280;11998;55.788;37.572;2023-02-23T04:18:55;99123.31;;;-14.12;100.00
23643;BME280;11998;55.788;37.572;2023-02-23T04:19:56;99119.38;;;-14.20;100.00
23643;BME280;11998;55.788;37.572;2023-02-23T04:20:58;99123.97;;;-14.15;100.00
23643;BME280;11998;55.788;37.572;2023-02-23T04:21:59;99125.72;;;-14.14;100.00
23643;BME280;11998;55.788;37.572;2023-02-23T04:23:02;99125.72;;;-14.14;100.00
23643;BME280;11998;55.788;37.572;2023-02-23T04:24:03;99119.75;;;-14.14;100.00
23643;BME280;11998;55.788;37.572;2023-02-23T04:25:04;99122.00;;;-14.19;100.00
23643;BME280;11998;55.788;37.572;2023-02-23T04:26:05;99121.91;;;-14.20;100.00
23643;BME280;11998;55.788;37.572;2023-02-23T04:27:06;99127.28;;;-14.16;100.00
23643;BME280;11998;55.788;37.572;2023-02-23T04:28:06;99125.72;;;-14.14;100.00
23643;BME280;11998;55.788;37.572;2023-02-23T04:29:07;99123.97;;;-14.15;100.00
23643;BME280;11998;55.788;37.572;2023-02-23T04:30:10;99132.63;;;-14.13;100.00
23643;BME280;11998;55.788;37.572;2023-02-23T04:31:11;99129.28;;;-14.12;100.00
23643;BME280;11998;55.788;37.572;2023-02-23T04:32:14;99137.44;;;-14.04;100.00
23643;BME280;11998;55.788;37.572;2023-02-23T04:33:15;99134.16;;;-14.15;100.00
23643;BME280;11998;55.788;37.572;2023-02-23T04:34:15;99133.25;;;-14.15;100.00
23643;BME280;11998;55.788;37.572;2023-02-23T04:35:16;99138.44;;;-14.14;100.00
23643;BME280;11998;55.788;37.572;2023-02-23T04:36:16;99138.44;;;-14.14;100.00
23643;BME280;11998;55.788;37.572;2023-02-23T04:37:17;99128.19;;;-14.15;100.00
23643;BME280;11998;55.788;37.572;2023-02-23T04:38:18;99136.59;;;-14.16;100.00
23643;BME280;11998;55.788;37.572;2023-02-23T04:39:18;99132.63;;;-14.13;100.00
23643;BME280;11998;55.788;37.572;2023-02-23T04:40:19;99137.47;;;-14.16;100.00
23643;BME280;11998;55.788;37.572;2023-02-23T04:41:20;99135.34;;;-14.10;100.00
23643;BME280;11998;55.788;37.572;2023-02-23T04:42:21;99137.31;;;-14.06;100.00
23643;BME280;11998;55.788;37.572;2023-02-23T04:43:22;99134.47;;;-14.10;100.00
23643;BME280;11998;55.788;37.572;2023-02-23T04:44:22;99137.22;;;-14.07;100.00
23643;BME280;11998;55.788;37.572;2023-02-23T04:45:23;99130.63;;;-14.17;100.00
23643;BME280;11998;55.788;37.572;2023-02-23T04:46:24;99137.47;;;-14.16;100.00
23643;BME280;11998;55.788;37.572;2023-02-23T04:47:25;99137.16;;;-14.20;100.00
23643;BME280;11998;55.788;37.572;2023-02-23T04:48:26;99137.47;;;-14.16;100.00
23643;BME280;11998;55.788;37.572;2023-02-23T04:49:26;99137.47;;;-14.16;100.00
23643;BME280;11998;55.788;37.572;2023-02-23T04:50:27;99135.91;;;-14.14;100.00
23643;BME280;11998;55.788;37.572;2023-02-23T04:51:28;99141.63;;;-14.05;100.00
23643;BME280;11998;55.788;37.572;2023-02-23T04:52:34;99136.53;;;-14.05;100.00
23643;BME280;11998;55.788;37.572;2023-02-23T04:53:34;99146.72;;;-14.05;100.00
23643;BME280;11998;55.788;37.572;2023-02-23T04:54:38;99141.09;;;-14.01;100.00
23643;BME280;11998;55.788;37.572;2023-02-23T04:55:39;99146.56;;;-13.95;100.00
23643;BME280;11998;55.788;37.572;2023-02-23T04:56:39;99135.81;;;-13.90;100.00
23643;BME280;11998;55.788;37.572;2023-02-23T04:57:40;99145.78;;;-13.94;100.00
23643;BME280;11998;55.788;37.572;2023-02-23T04:58:40;99138.59;;;-13.87;100.00
23643;BME280;11998;55.788;37.572;2023-02-23T04:59:41;99149.66;;;-13.87;100.00
23643;BME280;11998;55.788;37.572;2023-02-23T05:00:42;99148.75;;;-13.87;100.00
23643;BME280;11998;55.788;37.572;2023-02-23T05:01:43;99149.75;;;-13.85;100.00
23643;BME280;11998;55.788;37.572;2023-02-23T05:02:44;99140.75;;;-13.80;100.00
23643;BME280;11998;55.788;37.572;2023-02-23T05:03:45;99139.97;;;-13.79;100.00
23643;BME280;11998;55.788;37.572;2023-02-23T05:04:45;99147.41;;;-13.82;100.00
23643;BME280;11998;55.788;37.572;2023-02-23T05:05:46;99147.03;;;-13.75;100.00
23643;BME280;11998;55.788;37.572;2023-02-23T05:06:46;99145.69;;;-13.70;100.00
23643;BME280;11998;55.788;37.572;2023-02-23T05:07:47;99145.88;;;-13.67;100.00
23643;BME280;11998;55.788;37.572;2023-02-23T05:08:48;99147.44;;;-13.69;100.00
23643;BME280;11998;55.788;37.572;2023-02-23T05:09:48;99144.31;;;-13.65;100.00
23643;BME280;11998;55.788;37.572;2023-02-23T05:10:49;99142.53;;;-13.66;100.00
23643;BME280;11998;55.788;37.572;2023-02-23T05:11:50;99140.09;;;-13.65;100.00
23643;BME280;11998;55.788;37.572;2023-02-23T05:12:50;99145.63;;;-13.58;100.00
23643;BME280;11998;55.788;37.572;2023-02-23T05:13:51;99145.72;;;-13.57;100.00
23643;BME280;11998;55.788;37.572;2023-02-23T05:14:51;99144.94;;;-13.56;100.00
23643;BME280;11998;55.788;37.572;2023-02-23T05:15:55;99138.28;;;-13.54;100.00
23643;BME280;11998;55.788;37.572;2023-02-23T05:16:57;99151.22;;;-13.51;100.00
23643;BME280;11998;55.788;37.572;2023-02-23T05:17:57;99138.50;;;-13.51;100.00
23643;BME280;11998;55.788;37.572;2023-02-23T05:19:00;99147.91;;;-13.50;100.00
23643;BME280;11998;55.788;37.572;2023-02-23T05:20:01;99148.63;;;-13.39;100.00
23643;BME280;11998;55.788;37.572;2023-02-23T05:21:04;99144.78;;;-13.32;100.00
23643;BME280;11998;55.788;37.572;2023-02-23T05:22:07;99145.56;;;-13.33;100.00
23643;BME280;11998;55.788;37.572;2023-02-23T05:23:12;99148.50;;;-13.27;100.00
23643;BME280;11998;55.788;37.572;2023-02-23T05:24:12;99142.84;;;-13.37;100.00
23643;BME280;11998;55.788;37.572;2023-02-23T05:25:13;99146.75;;;-13.28;100.00
23643;BME280;11998;55.788;37.572;2023-02-23T05:26:13;99152.25;;;-13.22;100.00
23643;BME280;11998;55.788;37.572;2023-02-23T05:27:14;99149.50;;;-13.12;100.00
23643;BME280;11998;55.788;37.572;2023-02-23T05:28:15;99146.38;;;-13.21;100.00
23643;BME280;11998;55.788;37.572;2023-02-23T05:29:18;99155.78;;;-13.20;100.00
23643;BME280;11998;55.788;37.572;2023-02-23T05:30:19;99150.47;;;-13.10;100.00
23643;BME280;11998;55.788;37.572;2023-02-23T05:31:19;99146.16;;;-13.11;100.00
23643;BME280;11998;55.788;37.572;2023-02-23T05:32:20;99157.41;;;-13.08;100.00
23643;BME280;11998;55.788;37.572;2023-02-23T05:33:21;99150.47;;;-12.97;100.00
23643;BME280;11998;55.788;37.572;2023-02-23T05:34:21;99153.81;;;-13.11;100.00
23643;BME280;11998;55.788;37.572;2023-02-23T05:35:24;99154.09;;;-12.93;100.00
23643;BME280;11998;55.788;37.572;2023-02-23T05:36:25;99152.31;;;-12.94;100.00
23643;BME280;11998;55.788;37.572;2023-02-23T05:37:25;99141.25;;;-12.95;100.00
23643;BME280;11998;55.788;37.572;2023-02-23T05:38:26;99152.03;;;-12.99;100.00
23643;BME280;11998;55.788;37.572;2023-02-23T05:39:27;99149.69;;;-12.83;100.00
23643;BME280;11998;55.788;37.572;2023-02-23T05:40:27;99150.47;;;-12.70;100.00
23643;BME280;11998;55.788;37.572;2023-02-23T05:41:28;99146.25;;;-12.70;100.00
23643;BME280;11998;55.788;37.572;2023-02-23T05:42:28;99154.19;;;-12.65;100.00
23643;BME280;11998;55.788;37.572;2023-02-23T05:43:31;99146.66;;;-12.64;100.00
23643;BME280;11998;55.788;37.572;2023-02-23T05:44:32;99148.97;;;-12.54;100.00
23643;BME280;11998;55.788;37.572;2023-02-23T05:45:32;99149.53;;;-12.45;100.00
23643;BME280;11998;55.788;37.572;2023-02-23T05:46:33;99152.19;;;-12.43;100.00
23643;BME280;11998;55.788;37.572;2023-02-23T05:47:34;99155.94;;;-12.38;100.00
23643;BME280;11998;55.788;37.572;2023-02-23T05:48:37;99148.47;;;-12.35;100.00
23643;BME280;11998;55.788;37.572;2023-02-23T05:49:38;99160.34;;;-12.35;100.00
23643;BME280;11998;55.788;37.572;2023-02-23T05:50:39;99155.59;;;-12.29;100.00
23643;BME280;11998;55.788;37.572;2023-02-23T05:51:42;99151.50;;;-12.27;100.00
23643;BME280;11998;55.788;37.572;2023-02-23T05:52:43;99157.56;;;-12.25;100.00
23643;BME280;11998;55.788;37.572;2023-02-23T05:53:44;99148.25;;;-12.25;100.00
23643;BME280;11998;55.788;37.572;2023-02-23T05:54:48;99152.94;;;-12.31;100.00
23643;BME280;11998;55.788;37.572;2023-02-23T05:55:49;99157.88;;;-12.34;100.00
23643;BME280;11998;55.788;37.572;2023-02-23T05:56:50;99151.38;;;-12.29;100.00
23643;BME280;11998;55.788;37.572;2023-02-23T05:57:51;99143.50;;;-12.19;100.00
23643;BME280;11998;55.788;37.572;2023-02-23T05:58:56;99153.13;;;-12.14;100.00
23643;BME280;11998;55.788;37.572;2023-02-23T05:59:59;99143.06;;;-11.98;100.00
23643;BME280;11998;55.788;37.572;2023-02-23T06:01:00;99155.63;;;-12.01;100.00
23643;BME280;11998;55.788;37.572;2023-02-23T06:02:00;99150.09;;;-11.94;100.00
23643;BME280;11998;55.788;37.572;2023-02-23T06:03:05;99150.09;;;-11.94;100.00
23643;BME280;11998;55.788;37.572;2023-02-23T06:04:05;99152.53;;;-12.10;100.00
23643;BME280;11998;55.788;37.572;2023-02-23T06:05:10;99158.06;;;-11.90;100.00
23643;BME280;11998;55.788;37.572;2023-02-23T06:06:12;99155.38;;;-11.91;100.00
23643;BME280;11998;55.788;37.572;2023-02-23T06:07:12;99160.78;;;-11.87;100.00
23643;BME280;11998;55.788;37.572;2023-02-23T06:08:13;99153.75;;;-11.76;100.00
23643;BME280;11998;55.788;37.572;2023-02-23T06:09:13;99162.81;;;-11.81;100.00
23643;BME280;11998;55.788;37.572;2023-02-23T06:10:14;99160.69;;;-11.88;100.00
23643;BME280;11998;55.788;37.572;2023-02-23T06:11:14;99165.09;;;-11.71;100.00
23643;BME280;11998;55.788;37.572;2023-02-23T06:12:15;99160.38;;;-11.65;100.00
23643;BME280;11998;55.788;37.572;2023-02-23T06:13:16;99159.84;;;-11.59;100.00
23643;BME280;11998;55.788;37.572;2023-02-23T06:14:17;99155.00;;;-11.55;100.00
23643;BME280;11998;55.788;37.572;2023-02-23T06:15:18;99152.38;;;-11.41;100.00